createdAt,value
2018-10-17T00:08:36.867Z,60.2
2018-10-17T00:23:51.359Z,61
2018-10-17T00:39:06.435Z,61.8
2018-10-17T00:54:21.529Z,62.1
2018-10-17T01:09:29.396Z,63
2018-10-17T01:24:51.409Z,63.8
2018-10-17T01:40:06.176Z,64.3
2018-10-17T01:55:20.946Z,64.9
2018-10-17T02:10:35.624Z,65.2
2018-10-17T02:25:49.596Z,65.7
2018-10-17T02:41:05.080Z,65.9
2018-10-17T02:56:19.783Z,66
2018-10-17T03:11:35.287Z,67
2018-10-17T03:26:41.040Z,67
2018-10-17T03:42:03.668Z,67.3
2018-10-17T03:57:18.316Z,68.3
2018-10-17T04:12:32.739Z,68.7
2018-10-17T04:27:47.346Z,68.4
2018-10-17T04:43:00.542Z,68.9
2018-10-17T04:58:16.192Z,69.3
2018-10-17T05:13:30.751Z,69.7
2018-10-17T05:28:45.122Z,70.3
2018-10-17T05:43:51.254Z,70
2018-10-17T05:59:14.331Z,70.2
2018-10-17T06:14:28.406Z,70
2018-10-17T06:29:42.856Z,69.6
2018-10-17T06:44:57.410Z,60.9
2018-10-17T07:00:11.958Z,55.1
2018-10-17T07:15:27.020Z,51.6
2018-10-17T07:30:41.480Z,49.1
2018-10-17T07:45:49.990Z,48.4
2018-10-17T08:01:11.697Z,48.5
2018-10-17T08:16:27.323Z,48.5
2018-10-17T08:31:43.013Z,47.8
2018-10-17T08:46:50.530Z,46.5
2018-10-17T09:02:15.897Z,44.6
2018-10-17T09:17:32.281Z,42.6
2018-10-17T09:32:49.281Z,41.7
2018-10-17T09:48:07.070Z,39.9
2018-10-17T10:03:22.411Z,38.1
2018-10-17T10:18:44.804Z,36.4
2018-10-17T10:34:02.724Z,33.4
2018-10-17T10:49:24.232Z,31.2
2018-10-17T11:04:42.704Z,29.4
2018-10-17T11:19:57.999Z,27.8
2018-10-17T11:35:24.942Z,26.5
2018-10-17T11:50:45.738Z,25.3
2018-10-17T12:06:07.958Z,24.7
2018-10-17T12:21:29.769Z,24.3
2018-10-17T12:36:37.676Z,23.4
2018-10-17T12:52:11.943Z,23.1
2018-10-17T13:07:37.225Z,22.4
2018-10-17T13:23:00.157Z,22.1
2018-10-17T13:38:22.671Z,23.1
2018-10-17T13:53:44.832Z,22.9
2018-10-17T14:08:52.639Z,22.6
2018-10-17T14:24:25.431Z,23.1
2018-10-17T14:39:52.380Z,23.5
2018-10-17T14:55:14.455Z,23.9
2018-10-17T15:10:36.694Z,24.6
2018-10-17T15:25:57.700Z,25.5
2018-10-17T15:41:05.227Z,26.3
2018-10-17T15:56:36.926Z,30.1
2018-10-17T16:11:58.578Z,32.3
2018-10-17T16:27:17.197Z,34.3
2018-10-17T16:42:35.737Z,36.2
2018-10-17T16:57:39.671Z,38.2
2018-10-17T17:13:10.553Z,39.8
2018-10-17T17:28:29.794Z,42
2018-10-17T17:43:47.042Z,43.7
2018-10-17T17:59:04.338Z,46.2
2018-10-17T18:14:10.619Z,47
2018-10-17T18:29:38.440Z,48
2018-10-17T18:44:55.305Z,48
2018-10-17T19:00:12.170Z,49.9
2018-10-17T19:15:28.737Z,51.9
2018-10-17T19:30:38.138Z,53.5
2018-10-17T19:46:01.592Z,54.9
2018-10-17T20:01:17.890Z,56.1
2018-10-17T20:16:33.847Z,57.8
2018-10-17T20:31:49.902Z,58.3
2018-10-17T20:47:03.223Z,59
2018-10-17T21:02:21.918Z,60
2018-10-17T21:17:37.518Z,60.4
2018-10-17T21:32:53.338Z,65.2
2018-10-17T21:47:57.827Z,60.2
2018-10-17T22:03:26.198Z,59.1
2018-10-17T22:18:42.127Z,60.9
2018-10-17T22:33:57.448Z,63.3
2018-10-17T22:49:12.791Z,64.8
2018-10-17T23:04:20.262Z,65.5
2018-10-17T23:19:43.210Z,66.4
2018-10-17T23:34:58.307Z,67.5
2018-10-17T23:50:13.556Z,68.5
